.
WxDataArchive / Data Records for 2009-07-01
2009-06-30 July 2009 2009-07-02

Data Records for Wednesday, 01 July 2009

Time	Temp	Chill	HIndex	Humid	Dewpt	 Wind 	HiWind	WindDir	Rain 	Barom 
-----	----	-----	------	-----	-----	------	------	-------	-----	----- 
00:00	63.2	63.2	63.2	70	53.2	0	1	315	0.00	29.681 
00:05	63.2	63.2	63.2	70	53.2	0	1	315	0.00	29.681 
00:10	63.2	63.2	63.2	70	53.2	0	1	315	0.00	29.681 
00:15	63.1	63.1	63.1	70	53.2	0	1	315	0.00	29.678 
00:20	63.1	63.1	63.1	70	53.2	0	1	315	0.00	29.678 
00:25	63.1	63.1	63.1	71	53.5	0	0	---	0.00	29.678 
00:30	62.9	62.9	62.9	71	53.3	0	1	315	0.00	29.673 
00:35	62.9	62.9	62.9	71	53.3	0	1	315	0.00	29.673 
00:40	62.7	62.7	62.7	71	53.2	0	1	315	0.00	29.673 
00:45	62.7	62.7	62.7	71	53.2	0	1	315	0.00	29.670 
00:50	62.7	62.7	62.7	71	53.2	0	1	315	0.00	29.670 
00:55	62.6	62.6	62.6	71	53.1	0	0	---	0.00	29.670 
01:00	62.6	62.6	62.6	71	53.1	0	0	---	0.00	29.670 
01:05	62.6	62.6	62.6	72	53.4	0	1	315	0.00	29.670 
01:10	62.4	62.4	62.4	72	53.2	0	0	---	0.00	29.670 
01:15	62.4	62.4	62.4	72	53.2	0	0	---	0.00	29.669 
01:20	62.3	62.3	62.3	72	53.2	0	1	315	0.00	29.669 
01:25	62.3	62.3	62.3	73	53.5	0	0	---	0.00	29.669 
01:30	62.1	62.1	62.1	73	53.3	0	1	315	0.00	29.666 
01:35	62.0	62.0	62.0	73	53.2	0	0	---	0.00	29.666 
01:40	62.0	62.0	62.0	73	53.2	0	0	---	0.00	29.666 
01:45	62.0	62.0	62.0	73	53.2	0	0	---	0.00	29.667 
01:50	62.0	62.0	62.0	73	53.2	0	0	---	0.00	29.667 
01:55	62.0	62.0	62.0	74	53.6	0	0	---	0.00	29.667 
02:00	62.0	62.0	62.0	73	53.2	0	0	---	0.00	29.667 
02:05	62.0	62.0	62.0	74	53.6	0	0	---	0.00	29.667 
02:10	61.8	61.8	61.8	74	53.4	0	0	---	0.00	29.667 
02:15	61.8	61.8	61.8	74	53.4	0	0	---	0.00	29.665 
02:20	61.8	61.8	61.8	74	53.4	0	1	315	0.00	29.665 
02:25	61.8	61.8	61.8	74	53.4	0	0	---	0.00	29.665 
02:30	61.8	61.8	61.8	74	53.4	0	0	---	0.00	29.666 
02:35	61.8	61.8	61.8	74	53.4	0	0	---	0.00	29.666 
02:40	61.8	61.8	61.8	75	53.8	0	0	---	0.00	29.666 
02:45	61.8	61.8	61.8	75	53.8	0	0	---	0.00	29.665 
02:50	61.8	61.8	61.8	75	53.8	0	0	---	0.00	29.665 
02:55	61.6	61.6	61.6	75	53.6	0	0	---	0.00	29.665 
03:00	61.6	61.6	61.6	75	53.6	0	0	---	0.00	29.665 
03:05	61.6	61.6	61.6	75	53.6	0	0	---	0.00	29.665 
03:10	61.6	61.6	61.6	75	53.6	0	0	---	0.00	29.665 
03:15	61.6	61.6	61.6	76	54.0	0	0	---	0.00	29.661 
03:20	61.6	61.6	61.6	76	54.0	0	0	---	0.00	29.661 
03:25	61.5	61.5	61.5	76	53.9	0	0	---	0.00	29.661 
03:30	61.5	61.5	61.5	76	53.9	0	0	---	0.00	29.663 
03:35	61.5	61.5	61.5	76	53.9	0	0	---	0.00	29.663 
03:40	61.5	61.5	61.5	76	53.9	0	0	---	0.00	29.663 
03:45	61.5	61.5	61.5	77	54.2	0	0	---	0.00	29.662 
03:50	61.5	61.5	61.5	77	54.2	0	0	---	0.00	29.662 
03:55	61.5	61.5	61.5	77	54.2	0	0	---	0.00	29.662 
04:00	61.3	61.3	61.3	77	54.0	0	0	---	0.00	29.661 
04:05	61.3	61.3	61.3	77	54.0	0	0	---	0.00	29.661 
04:10	61.3	61.3	61.3	77	54.0	0	0	---	0.00	29.661 
04:15	61.3	61.3	61.3	77	54.0	0	0	---	0.00	29.663 
04:20	61.2	61.2	61.2	77	53.9	0	0	---	0.00	29.663 
04:25	61.2	61.2	61.2	77	53.9	0	0	---	0.00	29.663 
04:30	61.2	61.2	61.2	77	53.9	0	0	---	0.00	29.665 
04:35	61.2	61.2	61.2	77	53.9	0	0	---	0.00	29.665 
04:40	61.2	61.2	61.2	78	54.3	0	0	---	0.00	29.665 
04:45	61.0	61.0	61.0	78	54.1	0	0	---	0.00	29.665 
04:50	61.0	61.0	61.0	78	54.1	0	0	---	0.00	29.665 
04:55	61.0	61.0	61.0	79	54.4	0	0	---	0.00	29.665 
05:00	61.0	61.0	61.0	79	54.4	0	0	---	0.00	29.665 
05:05	61.0	61.0	61.0	79	54.4	0	0	---	0.00	29.665 
05:10	60.9	60.9	60.9	79	54.3	0	0	---	0.00	29.665 
05:15	60.9	60.9	60.9	79	54.3	0	0	---	0.00	29.675 
05:20	60.9	60.9	60.9	79	54.3	0	0	---	0.00	29.675 
05:25	60.9	60.9	60.9	79	54.3	0	1	315	0.00	29.675 
05:30	60.9	60.9	60.9	79	54.3	0	0	---	0.00	29.679 
05:35	60.9	60.9	60.9	79	54.3	0	0	---	0.00	29.679 
05:40	60.9	60.9	60.9	79	54.3	0	0	---	0.00	29.679 
05:45	60.9	60.9	60.9	80	54.7	0	0	---	0.00	29.679 
05:50	60.9	60.9	60.9	80	54.7	0	0	---	0.00	29.679 
05:55	60.7	60.7	60.7	80	54.5	0	0	---	0.00	29.679 
06:00	60.7	60.7	60.7	80	54.5	0	0	---	0.00	29.680 
06:05	60.7	60.7	60.7	80	54.5	0	0	---	0.00	29.680 
06:10	60.7	60.7	60.7	80	54.5	0	0	---	0.00	29.680 
06:15	60.7	60.7	60.7	81	54.8	0	0	---	0.00	29.681 
06:20	60.7	60.7	60.7	81	54.8	0	0	---	0.00	29.681 
06:25	60.7	60.7	60.7	81	54.8	0	0	---	0.00	29.681 
06:30	60.7	60.7	60.7	81	54.8	0	0	---	0.00	29.683 
06:35	60.7	60.7	60.7	81	54.8	0	0	---	0.00	29.683 
06:40	60.7	60.7	60.7	81	54.8	0	0	---	0.00	29.683 
06:45	60.7	60.7	60.7	82	55.2	0	0	---	0.00	29.685 
06:50	60.7	60.7	60.7	82	55.2	0	0	---	0.00	29.685 
06:55	60.7	60.7	60.7	81	54.8	0	0	---	0.00	29.685 
07:00	60.7	60.7	60.7	82	55.2	0	0	---	0.00	29.694 
07:05	60.9	60.9	60.9	82	55.4	0	0	---	0.00	29.694 
07:10	61.0	61.0	61.0	82	55.5	0	0	---	0.00	29.694 
07:15	61.2	61.2	61.2	81	55.3	0	0	---	0.00	29.700 
07:20	61.2	61.2	61.2	81	55.3	0	0	---	0.00	29.700 
07:25	61.3	61.3	61.3	80	55.1	0	1	315	0.00	29.700 
07:30	61.5	61.5	61.5	80	55.3	0	0	---	0.00	29.702 
07:35	61.6	61.6	61.6	79	55.0	0	0	---	0.00	29.702 
07:40	61.8	61.8	61.8	79	55.2	0	0	---	0.00	29.702 
07:45	62.0	62.0	62.0	79	55.4	0	1	315	0.00	29.705 
07:50	62.0	62.0	62.0	78	55.1	0	1	270	0.00	29.705 
07:55	62.1	62.1	62.1	78	55.2	0	0	---	0.00	29.705 
08:00	62.3	62.3	62.3	78	55.3	0	0	---	0.00	29.711 
08:05	62.3	62.3	62.3	78	55.3	0	1	270	0.00	29.711 
08:10	62.3	62.3	62.3	78	55.3	0	0	---	0.00	29.711 
08:15	62.3	62.3	62.3	77	55.0	0	0	---	0.00	29.712 
08:20	62.3	62.3	62.3	77	55.0	0	0	---	0.00	29.712 
08:25	62.4	62.4	62.4	77	55.1	0	1	0	0.00	29.712 
08:30	62.4	62.4	62.4	75	54.4	0	1	292	0.00	29.713 
08:35	62.6	62.6	62.6	76	54.9	0	1	292	0.00	29.713 
08:40	62.7	62.7	62.7	76	55.0	0	1	292	0.00	29.713 
08:45	62.9	62.9	62.9	76	55.2	0	1	292	0.00	29.714 
08:50	63.1	63.1	63.1	75	55.0	0	1	292	0.00	29.714 
08:55	63.4	63.4	63.4	76	55.7	0	0	---	0.00	29.714 
09:00	63.5	63.5	63.5	75	55.4	0	1	292	0.00	29.713 
09:05	63.7	63.7	63.7	74	55.3	0	1	292	0.00	29.713 
09:10	63.9	63.9	63.9	73	55.1	0	1	292	0.00	29.713 
09:15	64.2	64.2	64.2	73	55.4	0	1	292	0.00	29.713 
09:20	64.3	64.3	64.3	72	55.1	0	1	292	0.00	29.713 
09:25	64.5	64.5	64.5	73	55.6	0	1	292	0.00	29.713 
09:30	64.7	64.7	64.7	71	55.1	0	1	292	0.00	29.713 
09:35	65.0	65.0	65.0	71	55.4	0	1	292	0.00	29.713 
09:40	65.6	65.6	65.6	72	56.3	0	1	292	0.00	29.713 
09:45	66.0	66.0	66.0	69	55.5	0	0	---	0.00	29.712 
09:50	66.1	66.1	66.1	69	55.6	0	1	292	0.00	29.712 
09:55	65.8	65.8	65.8	68	54.9	0	1	90	0.00	29.712 
10:00	65.6	65.6	65.6	69	55.1	0	0	---	0.00	29.715 
10:05	65.5	65.5	65.5	68	54.7	0	0	---	0.00	29.715 
10:10	65.5	65.5	65.5	69	55.1	0	2	90	0.00	29.715 
10:15	65.6	65.6	65.6	69	55.1	1	2	90	0.00	29.716 
10:20	65.8	65.8	65.8	67	54.5	1	2	90	0.00	29.716 
10:25	66.0	66.0	66.0	68	55.1	0	2	90	0.00	29.716 
10:30	66.1	66.1	66.1	68	55.2	1	3	112	0.00	29.717 
10:35	66.4	66.4	66.4	67	55.1	1	3	90	0.00	29.717 
10:40	66.9	66.9	66.9	65	54.7	0	2	90	0.00	29.717 
10:45	67.8	67.8	67.8	64	55.2	0	2	90	0.00	29.712 
10:50	68.3	68.3	68.3	63	55.2	1	3	90	0.00	29.712 
10:55	68.4	68.4	68.4	63	55.3	0	1	90	0.00	29.712 
11:00	67.9	67.9	67.9	62	54.4	0	2	90	0.00	29.712 
11:05	67.6	67.6	67.6	63	54.5	0	2	90	0.00	29.712 
11:10	67.4	67.4	67.4	64	54.8	0	1	90	0.00	29.712 
11:15	67.8	67.8	67.8	64	55.2	0	2	202	0.00	29.717 
11:20	67.8	67.8	67.8	63	54.7	0	1	202	0.00	29.717 
11:25	68.1	68.1	68.1	64	55.5	0	1	202	0.00	29.717 
11:30	68.6	68.6	68.6	63	55.5	1	3	90	0.00	29.717 
11:35	69.1	69.1	69.1	61	55.1	1	4	90	0.00	29.717 
11:40	69.4	69.4	69.4	60	54.9	0	1	90	0.00	29.717 
11:45	69.3	69.3	69.3	60	54.8	0	2	90	0.00	29.718 
11:50	68.8	68.8	68.8	60	54.3	1	3	90	0.00	29.718 
11:55	68.3	68.3	68.3	62	54.8	0	1	90	0.00	29.718 
12:00	67.8	67.8	67.8	63	54.7	0	1	90	0.00	29.724 
12:05	67.3	67.3	67.3	63	54.3	0	1	90	0.00	29.724 
12:10	66.9	66.9	66.9	64	54.3	0	2	90	0.00	29.724 
12:15	66.6	66.6	66.6	64	54.0	0	1	180	0.00	29.725 
12:20	66.4	66.4	66.4	65	54.3	0	1	315	0.00	29.725 
12:25	66.3	66.3	66.3	65	54.2	0	1	315	0.00	29.725 
12:30	66.3	66.3	66.3	65	54.2	0	1	315	0.00	29.728 
12:35	66.4	66.4	66.4	65	54.3	0	1	315	0.00	29.728 
12:40	66.6	66.6	66.6	65	54.5	0	1	315	0.00	29.728 
12:45	66.8	66.8	66.8	65	54.6	0	2	315	0.00	29.727 
12:50	66.9	66.9	66.9	65	54.7	0	1	338	0.00	29.727 
12:55	66.9	66.9	66.9	65	54.7	0	2	338	0.00	29.727 
13:00	67.1	67.1	67.1	64	54.5	0	2	338	0.00	29.727 
13:05	67.3	67.3	67.3	64	54.7	0	2	338	0.00	29.727 
13:10	67.6	67.6	67.6	63	54.5	0	2	315	0.00	29.727 
13:15	67.8	67.8	67.8	63	54.7	0	2	315	0.00	29.727 
13:20	68.1	68.1	68.1	63	55.0	1	2	315	0.00	29.727 
13:25	68.3	68.3	68.3	61	54.3	1	3	292	0.00	29.727 
13:30	68.3	68.3	68.3	62	54.8	1	3	292	0.00	29.725 
13:35	68.4	68.4	68.4	63	55.3	0	2	292	0.00	29.725 
13:40	68.6	68.6	68.6	63	55.5	1	2	248	0.00	29.725 
13:45	68.6	68.6	68.6	62	55.0	1	3	315	0.00	29.726 
13:50	68.6	68.6	68.6	62	55.0	1	3	292	0.00	29.726 
13:55	68.8	68.8	68.8	62	55.2	1	3	248	0.00	29.726 
14:00	68.6	68.6	68.6	63	55.5	1	4	270	0.00	29.724 
14:05	68.6	68.6	68.6	64	55.9	1	2	248	0.00	29.724 
14:10	68.9	68.9	68.9	63	55.8	1	3	248	0.00	29.724 
14:15	69.1	69.1	69.1	64	56.4	1	3	248	0.00	29.726 
14:20	69.3	69.3	69.3	63	56.2	1	3	248	0.00	29.726 
14:25	69.1	69.1	69.1	63	56.0	1	5	270	0.00	29.726 
14:30	68.9	68.9	68.9	65	56.6	0	2	270	0.00	29.727 
14:35	68.8	68.8	68.8	63	55.7	1	3	225	0.00	29.727 
14:40	68.3	68.3	68.3	62	54.8	1	3	248	0.00	29.727 
14:45	68.3	68.3	68.3	63	55.2	0	1	248	0.00	29.728 
14:50	68.3	68.3	68.3	62	54.8	1	2	248	0.00	29.728 
14:55	68.3	68.3	68.3	62	54.8	0	2	270	0.00	29.728 
15:00	68.3	68.3	68.3	61	54.3	1	4	248	0.00	29.729 
15:05	68.1	68.1	68.1	62	54.6	2	4	270	0.00	29.729 
15:10	68.1	68.1	68.1	62	54.6	1	4	270	0.00	29.729 
15:15	68.3	68.3	68.3	63	55.2	1	3	248	0.00	29.731 
15:20	68.6	68.6	68.6	62	55.0	2	4	248	0.00	29.731 
15:25	68.6	68.6	68.6	59	53.7	2	4	270	0.00	29.731 
15:30	68.9	68.9	68.9	60	54.4	1	3	270	0.00	29.730 
15:35	69.1	69.1	69.1	60	54.6	1	3	270	0.00	29.730 
15:40	69.3	69.3	69.3	60	54.8	1	3	248	0.00	29.730 
15:45	69.3	69.3	69.3	60	54.8	1	3	248	0.00	29.732 
15:50	69.3	69.3	69.3	60	54.8	1	3	248	0.00	29.732 
15:55	69.1	69.1	69.1	61	55.1	1	3	248	0.00	29.732 
16:00	68.9	68.9	68.9	62	55.3	1	4	248	0.00	29.733 
16:05	68.4	68.4	68.4	64	55.7	1	5	270	0.00	29.733 
16:10	67.9	67.9	67.9	63	54.8	2	4	270	0.00	29.733 
16:15	67.6	67.6	67.6	64	55.0	2	4	270	0.00	29.739 
16:20	67.4	67.4	67.4	66	55.6	1	2	270	0.00	29.739 
16:25	67.4	67.4	67.4	67	56.1	1	3	248	0.00	29.739 
16:30	67.3	67.3	67.3	68	56.4	1	3	248	0.00	29.740 
16:35	67.1	67.1	67.1	67	55.8	1	4	270	0.00	29.740 
16:40	66.9	66.9	66.9	67	55.6	1	3	270	0.00	29.740 
16:45	66.8	66.8	66.8	66	55.1	1	3	270	0.00	29.743 
16:50	66.6	66.6	66.6	66	54.9	1	4	248	0.00	29.743 
16:55	66.6	66.6	66.6	66	54.9	2	4	292	0.00	29.743 
17:00	66.4	66.4	66.4	67	55.1	1	2	248	0.00	29.746 
17:05	66.3	66.3	66.3	67	55.0	1	3	248	0.00	29.746 
17:10	66.1	66.1	66.1	67	54.8	1	3	248	0.00	29.746 
17:15	66.0	66.0	66.0	68	55.1	1	3	225	0.00	29.748 
17:20	66.0	66.0	66.0	69	55.5	0	1	0	0.00	29.748 
17:25	66.0	66.0	66.0	69	55.5	2	4	270	0.00	29.748 
17:30	65.6	65.6	65.6	69	55.1	2	4	270	0.00	29.750 
17:35	65.6	65.6	65.6	69	55.1	1	3	270	0.00	29.750 
17:40	65.6	65.6	65.6	70	55.5	0	2	270	0.00	29.750 
17:45	65.6	65.6	65.6	70	55.5	1	3	270	0.00	29.752 
17:50	65.0	65.0	65.0	73	56.1	2	5	270	0.00	29.752 
17:55	64.7	64.7	64.7	74	56.2	1	3	315	0.00	29.752 
18:00	64.3	64.3	64.3	75	56.2	1	4	292	0.00	29.756 
18:05	64.2	64.2	64.2	76	56.5	1	3	292	0.00	29.756 
18:10	64.2	64.2	64.2	77	56.8	0	1	292	0.00	29.756 
18:15	64.2	64.2	64.2	77	56.8	1	4	292	0.00	29.763 
18:20	64.0	64.0	64.0	78	57.0	1	3	315	0.00	29.763 
18:25	63.9	63.9	63.9	78	56.9	0	3	315	0.00	29.763 
18:30	63.9	63.9	63.9	78	56.9	0	2	315	0.00	29.765 
18:35	63.9	63.9	63.9	79	57.3	0	2	315	0.00	29.765 
18:40	63.9	63.9	63.9	79	57.3	0	1	315	0.00	29.765 
18:45	63.7	63.7	63.7	80	57.4	1	4	315	0.00	29.768 
18:50	63.2	63.2	63.2	82	57.6	1	3	292	0.00	29.768 
18:55	62.7	62.7	62.7	84	57.8	1	4	270	0.00	29.768 
19:00	62.4	62.4	62.4	85	57.8	0	2	270	0.00	29.777 
19:05	62.1	62.1	62.1	87	58.2	0	2	270	0.00	29.777 
19:10	62.0	62.0	62.0	88	58.4	0	1	270	0.00	29.777 
19:15	61.8	61.8	61.8	88	58.2	0	1	270	0.00	29.778 
19:20	61.8	61.8	61.8	88	58.2	0	1	270	0.00	29.778 
19:25	61.6	61.6	61.6	88	58.0	0	3	270	0.00	29.778 
19:30	61.6	61.6	61.6	88	58.0	0	1	270	0.00	29.780 
19:35	61.5	61.5	61.5	88	57.9	2	5	270	0.00	29.780 
19:40	60.9	60.9	60.9	87	57.0	2	5	270	0.00	29.780 
19:45	60.5	60.5	60.5	88	56.9	1	2	270	0.00	29.794 
19:50	60.2	60.2	60.2	89	56.9	0	2	292	0.00	29.794 
19:55	59.9	59.9	59.9	90	57.0	0	1	292	0.00	29.794 
20:00	59.9	59.9	59.9	90	57.0	0	1	292	0.00	29.795 
20:05	59.8	59.8	59.8	91	57.2	0	1	292	0.00	29.795 
20:10	59.6	59.6	59.6	91	57.0	0	1	292	0.00	29.795 
20:15	59.6	59.6	59.6	92	57.3	0	1	292	0.00	29.795 
20:20	59.6	59.6	59.6	92	57.3	0	1	292	0.00	29.795 
20:25	59.5	59.5	59.5	92	57.2	1	3	292	0.00	29.795 
20:30	58.9	58.9	58.9	92	56.6	1	3	292	0.01	29.802 
20:35	58.7	58.7	58.7	92	56.4	0	2	315	0.00	29.802 
20:40	58.6	58.6	58.6	92	56.3	0	1	315	0.00	29.802 
20:45	58.6	58.6	58.6	92	56.3	0	1	315	0.00	29.799 
20:50	58.6	58.6	58.6	92	56.3	0	1	315	0.00	29.799 
20:55	58.4	58.4	58.4	92	56.1	0	1	315	0.00	29.799 
21:00	58.6	58.6	58.6	92	56.3	0	1	315	0.00	29.798 
21:05	58.6	58.6	58.6	92	56.3	0	1	315	0.00	29.798 
21:10	58.6	58.6	58.6	92	56.3	0	1	315	0.00	29.798 
21:15	58.6	58.6	58.6	92	56.3	0	1	315	0.00	29.803 
21:20	58.7	58.7	58.7	92	56.4	0	1	315	0.00	29.803 
21:25	58.7	58.7	58.7	92	56.4	0	1	315	0.00	29.803 
21:30	58.7	58.7	58.7	92	56.4	0	1	315	0.00	29.801 
21:35	58.9	58.9	58.9	92	56.6	0	1	315	0.00	29.801 
21:40	58.9	58.9	58.9	92	56.6	0	1	315	0.00	29.801 
21:45	58.9	58.9	58.9	92	56.6	0	1	315	0.00	29.809 
21:50	58.9	58.9	58.9	92	56.6	0	0	---	0.00	29.809 
21:55	59.0	59.0	59.0	92	56.7	0	1	315	0.00	29.809 
22:00	59.0	59.0	59.0	92	56.7	0	1	315	0.00	29.810 
22:05	59.0	59.0	59.0	92	56.7	0	1	315	0.00	29.810 
22:10	59.0	59.0	59.0	92	56.7	0	1	315	0.00	29.810 
22:15	59.0	59.0	59.0	91	56.4	0	1	315	0.00	29.819 
22:20	58.9	58.9	58.9	91	56.3	0	3	315	0.00	29.819 
22:25	58.9	58.9	58.9	90	56.0	0	3	292	0.00	29.819 
22:30	58.9	58.9	58.9	89	55.7	0	1	292	0.00	29.824 
22:35	58.9	58.9	58.9	88	55.3	0	1	292	0.00	29.824 
22:40	58.9	58.9	58.9	88	55.3	0	2	292	0.00	29.824 
22:45	58.9	58.9	58.9	88	55.3	0	2	292	0.00	29.826 
22:50	58.7	58.7	58.7	87	54.8	0	2	292	0.00	29.826 
22:55	58.7	58.7	58.7	87	54.8	0	1	292	0.00	29.826 
23:00	58.7	58.7	58.7	86	54.5	0	2	292	0.00	29.829 
23:05	58.6	58.6	58.6	85	54.1	1	3	292	0.00	29.829 
23:10	58.6	58.6	58.6	84	53.8	0	2	292	0.00	29.829 
23:15	58.6	58.6	58.6	84	53.8	0	2	292	0.00	29.830 
23:20	58.6	58.6	58.6	84	53.8	0	4	292	0.00	29.830 
23:25	58.6	58.6	58.6	84	53.8	0	1	292	0.00	29.830 
23:30	58.4	58.4	58.4	83	53.3	0	1	292	0.00	29.829 
23:35	58.4	58.4	58.4	84	53.6	0	1	292	0.00	29.829 
23:40	58.4	58.4	58.4	84	53.6	0	1	292	0.00	29.829 
23:45	58.4	58.4	58.4	84	53.6	0	1	292	0.00	29.827 
23:50	58.4	58.4	58.4	84	53.6	0	1	292	0.00	29.827 
23:55	58.3	58.3	58.3	84	53.5	0	1	292	0.00	29.827 

CoCoRaHS
IN-AL-39
A2 Web Hosting
Creative Commons License
GoDaddy
search engine by freefind advanced

loaded 2018-11-13 02:34:50 • last modified 2010-11-18 10:43:29
Privacy PolicyDisclaimer
• wx.awcolley.com is powered by PmWiki v.2002016 •
• all content (unless otherwise noted) © 2018 A W Colley